Time;durP1;ratioP1;P1;durP2;ratioP2;P2;SDS_P1;SDS_P2;PMS_P1;PMS_P2;Temp;Humidity;BMP_temperature;BMP_pressure;BME280_temperature;BME280_humidity;BME280_pressure;Samples;Min_cycle;Max_cycle;Signal;HPM_P1;HPM_P2
2023/05/14 00:03:06;;;;;;;4.85;2.53;;;;;;;13.10;51.86;102070.09;10663506;27;20054;-69
2023/05/14 00:08:08;;;;;;;2.92;1.63;;;;;;;13.17;51.80;102070.69;10682377;27;20038;-69
2023/05/14 00:13:10;;;;;;;2.25;1.70;;;;;;;13.13;51.10;102067.66;10657143;27;20042;-69
2023/05/14 00:18:12;;;;;;;6.20;2.15;;;;;;;13.10;52.20;102067.34;10651477;27;20042;-69
2023/05/14 00:23:14;;;;;;;3.85;2.13;;;;;;;13.02;52.36;102070.59;10639202;27;20043;-69
2023/05/14 00:28:17;;;;;;;5.47;2.33;;;;;;;12.97;51.87;102068.59;10656233;27;20051;-70
2023/05/14 00:33:19;;;;;;;2.92;1.77;;;;;;;12.89;52.42;102069.94;10621403;27;20136;-69
2023/05/14 00:38:23;;;;;;;2.72;2.13;;;;;;;12.81;53.24;102072.31;10651431;27;20050;-69
2023/05/14 00:43:25;;;;;;;2.90;1.90;;;;;;;12.74;53.71;102088.22;10654226;27;20046;-70
2023/05/14 00:48:28;;;;;;;2.58;1.60;;;;;;;12.68;53.25;102081.84;10620207;27;20050;-70
2023/05/14 00:53:30;;;;;;;4.32;1.95;;;;;;;12.80;52.85;102076.16;10597436;27;20508;-69
2023/05/14 00:58:32;;;;;;;2.58;1.80;;;;;;;12.88;53.09;102078.47;10654592;27;20043;-69
2023/05/14 01:03:34;;;;;;;3.00;2.30;;;;;;;12.81;53.46;102075.91;10655086;27;20046;-69
2023/05/14 01:08:43;;;;;;;2.92;2.10;;;;;;;12.94;53.23;102077.41;10602399;27;20084;-69
2023/05/14 01:14:10;;;;;;;3.88;2.35;;;;;;;12.79;53.80;102075.34;10620228;27;20046;-70
2023/05/14 01:19:28;;;;;;;3.38;2.08;;;;;;;12.59;54.23;102077.88;10611313;28;20055;-70
2023/05/14 01:24:30;;;;;;;4.22;2.10;;;;;;;12.42;54.69;102086.25;10646413;27;20035;-69
2023/05/14 01:29:33;;;;;;;5.53;2.47;;;;;;;12.35;55.12;102075.44;10635816;27;20520;-69
2023/05/14 01:34:35;;;;;;;4.30;2.30;;;;;;;12.22;55.78;102064.00;10636179;27;20505;-69
2023/05/14 01:39:38;;;;;;;4.90;2.30;;;;;;;12.14;55.59;102061.69;10653840;27;20112;-69
2023/05/14 01:44:41;;;;;;;3.25;1.95;;;;;;;12.34;55.84;102057.28;10631135;28;20051;-69
2023/05/14 01:49:43;;;;;;;2.75;1.98;;;;;;;12.56;55.74;102057.22;10615150;28;20043;-70
2023/05/14 01:54:48;;;;;;;5.22;2.40;;;;;;;12.61;55.02;102060.00;10653487;28;20046;-70
2023/05/14 01:59:50;;;;;;;3.13;1.83;;;;;;;12.63;55.57;102054.25;10654284;28;20497;-70
2023/05/14 02:04:53;;;;;;;2.60;2.08;;;;;;;12.60;55.90;102063.84;10659915;27;20038;-70
2023/05/14 02:09:55;;;;;;;4.43;2.25;;;;;;;12.64;55.75;102056.72;10662461;27;20489;-70
2023/05/14 02:14:57;;;;;;;3.45;2.15;;;;;;;12.74;55.81;102069.78;10601016;28;20042;-70
2023/05/14 02:19:59;;;;;;;2.97;2.28;;;;;;;12.77;55.28;102077.53;10609603;27;20047;-70
2023/05/14 02:25:01;;;;;;;3.33;1.90;;;;;;;12.81;55.57;102077.81;10626272;27;20047;-70
2023/05/14 02:30:05;;;;;;;2.65;2.15;;;;;;;12.62;55.34;102067.19;10642134;27;20047;-69
2023/05/14 02:35:07;;;;;;;3.28;1.92;;;;;;;12.54;56.31;102067.66;10643196;27;20031;-70
2023/05/14 02:40:10;;;;;;;2.63;2.05;;;;;;;12.62;55.69;102069.09;10661282;27;20054;-69
2023/05/14 02:45:13;;;;;;;4.15;2.28;;;;;;;12.62;56.15;102058.91;10641921;27;20057;-69
2023/05/14 02:50:15;;;;;;;3.17;1.90;;;;;;;12.59;55.94;102064.94;10608201;27;20042;-69
2023/05/14 02:55:17;;;;;;;2.38;2.10;;;;;;;12.66;55.87;102059.22;10642364;27;20041;-69
2023/05/14 03:00:20;;;;;;;1.75;1.55;;;;;;;12.59;56.98;102064.13;10641719;27;20410;-69
2023/05/14 03:05:27;;;;;;;4.47;1.77;;;;;;;12.58;56.66;102059.72;10641869;27;20042;-70
2023/05/14 03:10:31;;;;;;;3.42;1.98;;;;;;;12.65;56.60;102058.41;10626169;27;20050;-69
2023/05/14 03:15:33;;;;;;;3.72;1.90;;;;;;;12.66;56.99;102059.22;10659157;27;20523;-69
2023/05/14 03:20:35;;;;;;;4.28;2.25;;;;;;;12.75;56.88;102054.09;10640723;27;20043;-69
2023/05/14 03:25:38;;;;;;;6.40;2.15;;;;;;;12.82;56.63;102058.28;10623993;27;20037;-70
2023/05/14 03:30:40;;;;;;;2.90;2.42;;;;;;;12.86;56.25;102062.19;10640373;27;20509;-69
2023/05/14 03:35:42;;;;;;;3.53;2.42;;;;;;;12.88;56.21;102049.00;10640844;27;20065;-70
2023/05/14 03:40:45;;;;;;;3.13;2.42;;;;;;;13.00;56.90;102062.56;10656727;27;20043;-70
2023/05/14 03:45:51;;;;;;;2.72;2.30;;;;;;;13.08;55.79;102061.28;10638261;27;20043;-69
2023/05/14 03:50:53;;;;;;;4.82;2.35;;;;;;;13.10;56.47;102067.34;10621601;27;20050;-70
2023/05/14 03:55:55;;;;;;;5.82;2.60;;;;;;;13.09;56.76;102060.19;10622978;27;20039;-70
2023/05/14 04:00:57;;;;;;;9.43;2.90;;;;;;;13.13;56.34;102062.13;10657910;27;20417;-70
2023/05/14 04:06:00;;;;;;;3.47;2.13;;;;;;;13.17;56.50;102056.91;10640901;27;20062;-70
2023/05/14 04:11:02;;;;;;;3.30;2.50;;;;;;;13.28;56.29;102055.94;10657693;27;20134;-70
2023/05/14 04:16:05;;;;;;;3.55;2.78;;;;;;;13.43;56.21;102053.28;10624224;27;20055;-70
2023/05/14 04:21:08;;;;;;;3.42;2.70;;;;;;;13.66;55.65;102052.03;10626088;27;20039;-69
2023/05/14 04:26:10;;;;;;;3.80;2.65;;;;;;;13.87;55.74;102056.56;10658057;27;20047;-69
2023/05/14 04:31:12;;;;;;;3.95;2.40;;;;;;;14.07;55.00;102055.84;10657571;27;20058;-68
2023/05/14 04:36:14;;;;;;;5.38;2.67;;;;;;;14.48;53.82;102044.94;10639023;27;20501;-69
2023/05/14 04:41:17;;;;;;;3.53;2.30;;;;;;;14.72;53.77;102050.78;10638895;27;20043;-68
2023/05/14 04:46:19;;;;;;;3.28;2.30;;;;;;;14.89;52.48;102053.28;10638371;27;20042;-69
2023/05/14 04:51:22;;;;;;;3.75;2.47;;;;;;;15.04;51.75;102050.53;10656483;27;20039;-70
2023/05/14 04:56:24;;;;;;;3.33;2.22;;;;;;;15.23;51.20;102053.56;10604220;27;20143;-68
2023/05/14 05:01:26;;;;;;;3.00;2.08;;;;;;;15.25;50.07;102049.41;10656541;27;20059;-69
2023/05/14 05:06:28;;;;;;;3.80;2.15;;;;;;;15.75;48.79;102046.84;10651638;27;20050;-69
2023/05/14 05:11:31;;;;;;;2.40;1.70;;;;;;;15.82;48.27;102039.09;10654121;27;20050;-70
2023/05/14 05:16:33;;;;;;;2.88;2.03;;;;;;;15.56;48.43;102052.13;10635651;27;20039;-69
2023/05/14 05:21:39;;;;;;;5.70;2.25;;;;;;;15.57;48.42;102051.84;10617385;27;20046;-69
2023/05/14 05:26:41;;;;;;;3.58;2.25;;;;;;;15.58;48.38;102052.66;10619671;27;20394;-70
2023/05/14 05:31:43;;;;;;;3.38;2.10;;;;;;;15.67;48.80;102045.50;10628729;27;20054;-68
2023/05/14 05:36:45;;;;;;;3.25;2.20;;;;;;;15.60;48.57;102059.59;10629168;27;20497;-69
2023/05/14 05:41:47;;;;;;;2.63;2.17;;;;;;;16.15;47.67;102062.47;10632099;27;20034;-69
2023/05/14 05:46:49;;;;;;;3.97;2.30;;;;;;;16.21;46.85;102053.03;10607073;28;20040;-69
2023/05/14 05:51:51;;;;;;;4.35;2.10;;;;;;;16.01;47.22;102064.19;10641960;28;20051;-69
2023/05/14 05:56:54;;;;;;;2.92;1.85;;;;;;;15.87;47.45;102055.66;10636059;28;20047;-70
2023/05/14 06:01:56;;;;;;;5.60;2.75;;;;;;;15.84;47.88;102047.94;10632089;28;20031;-69
2023/05/14 06:06:58;;;;;;;2.88;2.30;;;;;;;15.75;47.44;102052.38;10593230;28;20122;-69
2023/05/14 06:12:00;;;;;;;5.03;2.58;;;;;;;15.83;47.50;102049.03;10634065;28;20039;-70
2023/05/14 06:17:02;;;;;;;4.13;2.15;;;;;;;16.01;47.35;102053.13;10635926;28;20519;-70
2023/05/14 06:22:05;;;;;;;1.77;1.60;;;;;;;16.33;46.51;102052.69;10651428;28;20040;-70
2023/05/14 06:27:09;;;;;;;3.10;1.50;;;;;;;16.41;45.99;102052.91;10618675;28;20057;-70
2023/05/14 06:32:14;;;;;;;4.85;2.08;;;;;;;16.28;46.38;102050.75;10595629;28;20047;-70
2023/05/14 06:37:16;;;;;;;4.25;1.95;;;;;;;16.33;46.55;102048.00;10623453;28;20082;-70
2023/05/14 06:42:18;;;;;;;3.25;1.90;;;;;;;16.46;46.19;102058.41;10617128;28;20062;-70
2023/05/14 06:47:20;;;;;;;2.60;1.88;;;;;;;16.53;46.42;102064.50;10654055;27;20409;-70
2023/05/14 06:52:23;;;;;;;5.32;1.90;;;;;;;16.42;46.91;102071.19;10659256;27;20501;-70
2023/05/14 06:57:25;;;;;;;4.18;2.10;;;;;;;16.17;47.08;102074.94;10643612;27;20043;-70
2023/05/14 07:02:27;;;;;;;2.28;1.83;;;;;;;16.07;46.56;102083.28;10660281;27;20038;-70
2023/05/14 07:07:29;;;;;;;2.83;1.60;;;;;;;16.13;46.65;102073.81;10661248;27;20039;-70
2023/05/14 07:12:31;;;;;;;2.72;1.70;;;;;;;16.13;46.34;102073.00;10660791;27;20046;-71
2023/05/14 07:17:34;;;;;;;3.85;1.50;;;;;;;15.96;46.90;102073.34;10660427;27;20043;-70
2023/05/14 07:22:36;;;;;;;3.60;1.65;;;;;;;15.93;46.92;102073.91;10660308;27;20042;-70
2023/05/14 07:27:38;;;;;;;4.07;2.00;;;;;;;15.94;46.70;102065.31;10635942;27;20043;-71
2023/05/14 07:32:40;;;;;;;2.55;1.70;;;;;;;16.00;46.73;102068.91;10639550;27;20078;-69
2023/05/14 07:37:42;;;;;;;2.30;1.70;;;;;;;16.22;46.65;102058.28;10623749;27;20035;-69
2023/05/14 07:42:45;;;;;;;4.93;1.92;;;;;;;16.56;46.17;102058.38;10626121;27;20046;-69
2023/05/14 07:47:50;;;;;;;3.00;1.70;;;;;;;18.38;42.66;102056.84;10622750;27;20039;-69
2023/05/14 07:52:52;;;;;;;3.95;1.77;;;;;;;20.26;39.74;102052.72;10633277;27;20051;-70
2023/05/14 07:57:55;;;;;;;2.85;1.75;;;;;;;21.28;37.68;102049.19;10620404;27;20062;-70
2023/05/14 08:02:57;;;;;;;2.83;1.60;;;;;;;22.40;34.60;102051.59;10649418;27;20138;-70
2023/05/14 08:07:59;;;;;;;2.17;1.48;;;;;;;22.52;35.13;102048.97;10642020;27;20046;-70
2023/05/14 08:13:01;;;;;;;1.50;1.33;;;;;;;21.96;34.92;102044.22;10643304;27;20035;-70
2023/05/14 08:18:03;;;;;;;1.45;1.30;;;;;;;20.94;35.42;102035.78;10652241;27;20066;-70
2023/05/14 08:23:06;;;;;;;1.58;1.40;;;;;;;20.26;36.83;102030.41;10606491;27;20046;-70
2023/05/14 08:28:08;;;;;;;4.78;1.80;;;;;;;20.76;37.04;102034.00;10612411;27;20058;-70
2023/05/14 08:33:10;;;;;;;1.60;1.10;;;;;;;21.53;35.49;102028.13;10641398;27;20493;-69
2023/05/14 08:38:13;;;;;;;2.30;1.30;;;;;;;22.46;34.29;102027.91;10631153;27;20047;-69
2023/05/14 08:43:19;;;;;;;1.90;1.00;;;;;;;22.25;34.68;102026.91;10621924;27;20051;-69
2023/05/14 08:48:22;;;;;;;4.25;1.30;;;;;;;21.78;34.36;102023.78;10613775;27;20505;-69
2023/05/14 08:53:24;;;;;;;2.28;1.10;;;;;;;21.92;34.34;102023.66;10626347;27;20035;-69
2023/05/14 08:58:27;;;;;;;1.38;1.10;;;;;;;21.66;33.64;102029.16;10620540;27;20031;-69
2023/05/14 09:03:29;;;;;;;1.90;1.17;;;;;;;21.78;33.38;102018.19;10648322;27;20504;-69
2023/05/14 09:08:33;;;;;;;2.75;1.10;;;;;;;21.83;33.25;102008.84;10626000;27;20037;-70
2023/05/14 09:13:37;;;;;;;3.03;1.10;;;;;;;22.06;32.50;102010.44;10650993;27;20042;-69
2023/05/14 09:18:43;;;;;;;1.52;0.90;;;;;;;22.91;31.10;102001.56;10635396;27;20051;-69
2023/05/14 09:23:47;;;;;;;2.80;1.20;;;;;;;22.64;31.75;102005.53;10620534;27;20456;-69
2023/05/14 09:28:52;;;;;;;1.98;1.02;;;;;;;21.60;32.50;101999.72;10636443;27;20472;-69
2023/05/14 09:33:55;;;;;;;1.23;0.90;;;;;;;20.77;33.27;101988.22;10620837;27;20556;-68
2023/05/14 09:38:57;;;;;;;3.85;0.95;;;;;;;20.30;33.89;101979.28;10644243;27;20050;-68
2023/05/14 09:44:00;;;;;;;2.40;0.80;;;;;;;20.26;34.42;101983.03;10649724;27;20039;-69
2023/05/14 09:49:03;;;;;;;2.20;0.80;;;;;;;20.39;34.07;101971.00;10637906;28;20047;-69
2023/05/14 09:54:05;;;;;;;1.38;0.93;;;;;;;20.46;33.80;101985.34;10614483;28;20038;-68
2023/05/14 09:59:07;;;;;;;1.15;0.70;;;;;;;20.62;31.88;101975.47;10617406;28;20059;-67
2023/05/14 10:04:10;;;;;;;2.45;0.60;;;;;;;20.60;31.46;101968.56;10601035;28;20035;-67
2023/05/14 10:09:15;;;;;;;0.63;0.60;;;;;;;20.80;31.07;101970.03;10597830;28;20427;-68
2023/05/14 10:14:28;;;;;;;0.90;0.63;;;;;;;20.76;31.72;101955.91;10608313;28;20501;-68
2023/05/14 10:19:34;;;;;;;1.05;0.90;;;;;;;20.72;31.76;101950.13;10629025;28;20054;-67
2023/05/14 10:24:37;;;;;;;1.70;1.00;;;;;;;20.49;32.52;101948.50;10655093;27;20047;-68
2023/05/14 10:29:40;;;;;;;1.10;1.00;;;;;;;20.78;32.28;101934.09;10617750;27;20039;-67
2023/05/14 10:34:43;;;;;;;3.28;0.90;;;;;;;20.73;32.39;101931.44;10655212;27;20548;-67
2023/05/14 10:39:46;;;;;;;1.50;1.15;;;;;;;20.90;32.74;101928.75;10627755;27;20524;-68
2023/05/14 10:44:57;;;;;;;4.07;1.27;;;;;;;21.02;33.47;101914.22;10681999;27;20051;-66
2023/05/14 10:50:02;;;;;;;2.53;1.40;;;;;;;20.98;34.02;101921.56;10702572;27;20045;-68
2023/05/14 10:55:09;;;;;;;3.20;1.83;;;;;;;21.14;33.80;101910.78;10623627;27;20035;-67
2023/05/14 11:00:12;;;;;;;2.17;1.45;;;;;;;21.20;33.72;101901.97;10654592;27;20045;-66
2023/05/14 11:05:16;;;;;;;5.43;1.48;;;;;;;21.13;33.67;101896.00;10638445;27;20034;-67
2023/05/14 11:10:20;;;;;;;2.10;1.50;;;;;;;21.17;33.07;101896.19;10647946;27;20047;-68
2023/05/14 11:15:24;;;;;;;3.17;1.30;;;;;;;20.92;33.34;101903.31;10618421;27;20040;-68
2023/05/14 11:20:27;;;;;;;3.22;1.83;;;;;;;21.05;33.22;101899.59;10598911;27;20042;-67
2023/05/14 11:25:30;;;;;;;4.03;1.80;;;;;;;21.19;33.17;101893.94;10660346;27;20051;-68
2023/05/14 11:30:32;;;;;;;2.58;1.80;;;;;;;21.13;33.56;101878.44;10613227;27;20051;-66
2023/05/14 11:35:35;;;;;;;2.90;1.67;;;;;;;21.16;32.94;101888.97;10635833;27;20043;-68
2023/05/14 11:40:38;;;;;;;2.40;1.38;;;;;;;21.12;32.71;101885.19;10625665;27;20043;-67
2023/05/14 11:45:40;;;;;;;2.65;1.40;;;;;;;20.85;33.13;101884.25;10652211;27;20043;-67
2023/05/14 11:50:47;;;;;;;3.08;2.25;;;;;;;21.04;34.91;101875.63;10653714;27;20043;-67
2023/05/14 11:55:49;;;;;;;4.05;2.63;;;;;;;20.91;34.91;101879.34;10644620;27;20039;-68
2023/05/14 12:00:53;;;;;;;2.75;2.30;;;;;;;20.91;35.21;101870.97;10632194;27;20047;-66
2023/05/14 12:06:00;;;;;;;4.40;2.50;;;;;;;20.94;35.18;101871.16;10641009;27;20046;-67
2023/05/14 12:11:02;;;;;;;4.97;2.50;;;;;;;20.95;34.81;101860.81;10647480;27;20039;-66
2023/05/14 12:16:05;;;;;;;2.45;2.22;;;;;;;20.84;34.42;101857.50;10625433;27;20042;-68
2023/05/14 12:21:07;;;;;;;3.15;2.38;;;;;;;20.66;34.92;101862.16;10641627;27;20058;-68
2023/05/14 12:26:11;;;;;;;4.05;2.42;;;;;;;20.49;35.44;101859.28;10647483;27;20038;-68
2023/05/14 12:31:14;;;;;;;3.55;2.42;;;;;;;20.70;35.18;101859.56;10657118;27;20058;-68
2023/05/14 12:36:16;;;;;;;3.92;2.10;;;;;;;20.40;34.64;101844.41;10628949;27;20524;-68
2023/05/14 12:41:18;;;;;;;3.15;1.90;;;;;;;20.42;34.50;101842.16;10650703;27;20043;-68
2023/05/14 12:46:21;;;;;;;2.25;2.00;;;;;;;20.37;34.58;101842.25;10635276;27;20051;-68
2023/05/14 12:51:24;;;;;;;3.28;2.15;;;;;;;20.58;34.71;101829.47;10632163;27;20040;-68
2023/05/14 12:56:27;;;;;;;2.92;2.38;;;;;;;20.74;34.34;101832.66;10612202;28;20410;-68
2023/05/14 13:01:35;;;;;;;3.42;2.10;;;;;;;20.78;33.56;101828.06;10623733;27;20042;-68
2023/05/14 13:06:38;;;;;;;3.05;2.15;;;;;;;21.05;32.81;101822.28;10653015;27;20055;-68
2023/05/14 13:11:40;;;;;;;2.75;2.03;;;;;;;21.18;32.30;101822.50;10618975;27;20441;-68
2023/05/14 13:16:42;;;;;;;3.78;1.90;;;;;;;21.27;31.72;101826.97;10630783;27;20039;-68
2023/05/14 13:21:45;;;;;;;2.47;2.03;;;;;;;21.42;31.40;101813.69;10635154;27;20505;-69
2023/05/14 13:26:47;;;;;;;4.65;1.95;;;;;;;21.44;31.40;101816.97;10632051;27;20054;-69
2023/05/14 13:31:49;;;;;;;2.55;2.35;;;;;;;21.26;31.74;101811.38;10646023;27;20054;-69
2023/05/14 13:36:52;;;;;;;3.35;2.17;;;;;;;21.15;31.42;101809.16;10578128;28;20054;-68
2023/05/14 13:41:55;;;;;;;5.03;2.20;;;;;;;21.06;31.60;101807.19;10581152;28;20519;-69
2023/05/14 13:46:57;;;;;;;3.38;2.03;;;;;;;21.09;32.26;101800.13;10596318;28;20046;-69
2023/05/14 13:51:59;;;;;;;4.65;3.65;;;;;;;21.12;32.66;101801.44;10636181;28;20366;-69
2023/05/14 13:57:02;;;;;;;4.03;3.05;;;;;;;21.15;32.65;101798.00;10604016;28;20051;-67
2023/05/14 14:02:04;;;;;;;3.17;2.50;;;;;;;21.11;32.43;101792.25;10561149;28;20509;-67
2023/05/14 14:07:07;;;;;;;4.88;2.63;;;;;;;21.05;32.04;101783.22;10563057;27;20044;-68
2023/05/14 14:12:09;;;;;;;3.05;2.40;;;;;;;20.99;32.78;101786.47;10615179;27;20043;-67
2023/05/14 14:17:12;;;;;;;4.43;2.38;;;;;;;21.04;32.38;101786.31;10624973;27;20040;-68
2023/05/14 14:22:16;;;;;;;5.22;2.63;;;;;;;21.13;32.36;101777.97;10611428;27;20043;-68
2023/05/14 14:27:18;;;;;;;3.85;2.47;;;;;;;21.12;32.30;101770.75;10619989;27;20039;-69
2023/05/14 14:32:20;;;;;;;3.15;2.20;;;;;;;21.20;32.48;101773.56;10655854;27;20035;-68
2023/05/14 14:37:22;;;;;;;5.72;2.50;;;;;;;21.08;32.46;101762.19;10616042;27;20550;-67
2023/05/14 14:42:25;;;;;;;4.10;2.63;;;;;;;21.13;33.39;101761.22;10610183;27;20051;-68
2023/05/14 14:47:28;;;;;;;2.35;2.10;;;;;;;21.16;33.27;101764.16;10596711;27;20042;-68
2023/05/14 14:52:31;;;;;;;4.50;2.42;;;;;;;21.19;33.58;101766.34;10584119;27;20036;-68
2023/05/14 14:57:33;;;;;;;5.60;2.45;;;;;;;21.16;33.88;101753.00;10615260;27;20409;-68
2023/05/14 15:02:37;;;;;;;4.53;1.98;;;;;;;21.17;33.19;101749.06;10599955;27;20043;-68
2023/05/14 15:07:39;;;;;;;3.75;2.78;;;;;;;21.00;34.22;101746.25;10590978;27;20054;-68
2023/05/14 15:12:41;;;;;;;3.45;2.25;;;;;;;20.80;34.95;101746.84;10603558;28;20039;-69
2023/05/14 15:17:43;;;;;;;4.97;2.78;;;;;;;20.63;35.27;101742.03;10563786;28;20040;-67
2023/05/14 15:22:46;;;;;;;5.93;2.90;;;;;;;20.51;35.13;101744.63;10597475;27;20342;-69
2023/05/14 15:27:48;;;;;;;5.35;2.72;;;;;;;20.39;34.68;101747.97;10589702;27;20043;-67
2023/05/14 15:32:51;;;;;;;3.33;2.38;;;;;;;20.08;35.02;101739.59;10635731;27;20041;-67
2023/05/14 15:37:56;;;;;;;2.95;2.40;;;;;;;20.02;34.84;101727.78;10621922;27;20049;-68
2023/05/14 15:42:58;;;;;;;3.58;2.60;;;;;;;20.04;35.34;101727.44;10637492;27;20055;-67
2023/05/14 15:48:00;;;;;;;3.58;2.20;;;;;;;19.93;35.25;101734.41;10632854;27;20039;-70
2023/05/14 15:53:02;;;;;;;4.03;1.63;;;;;;;19.70;36.82;101728.88;10649789;27;20516;-69
2023/05/14 15:58:05;;;;;;;3.78;1.42;;;;;;;19.45;36.83;101724.72;10658462;27;20039;-68
2023/05/14 16:03:07;;;;;;;2.58;1.30;;;;;;;19.31;37.94;101729.50;10664093;27;20756;-69
2023/05/14 16:08:09;;;;;;;4.53;1.40;;;;;;;19.26;37.97;101722.09;10640415;27;20046;-69
2023/05/14 16:13:11;;;;;;;1.80;1.58;;;;;;;19.24;37.63;101724.34;10615025;27;20039;-69
2023/05/14 16:18:14;;;;;;;2.38;1.50;;;;;;;19.25;37.98;101722.38;10641096;27;20038;-70
2023/05/14 16:23:16;;;;;;;2.70;1.65;;;;;;;18.97;38.34;101718.84;10655162;27;20580;-71
2023/05/14 16:28:19;;;;;;;2.35;1.50;;;;;;;18.84;38.68;101725.25;10649499;27;20050;-68
2023/05/14 16:33:21;;;;;;;2.95;1.65;;;;;;;18.76;39.04;101718.47;10617874;27;20035;-70
2023/05/14 16:38:23;;;;;;;3.35;1.30;;;;;;;18.61;38.99;101727.09;10646557;27;20050;-69
2023/05/14 16:43:25;;;;;;;2.17;1.60;;;;;;;18.49;39.76;101721.22;10656015;27;20043;-69
2023/05/14 16:48:28;;;;;;;2.55;1.50;;;;;;;18.48;39.46;101731.50;10651720;27;20062;-69
2023/05/14 16:53:30;;;;;;;2.38;1.60;;;;;;;18.49;39.82;101721.22;10656219;27;20047;-69
2023/05/14 16:58:32;;;;;;;2.17;1.27;;;;;;;18.44;39.96;101726.88;10652370;27;20394;-69
2023/05/14 17:03:34;;;;;;;2.97;1.92;;;;;;;18.32;40.02;101725.41;10626647;27;20039;-69
2023/05/14 17:08:36;;;;;;;3.75;1.88;;;;;;;18.26;40.12;101732.22;10577727;27;20043;-69
2023/05/14 17:13:38;;;;;;;3.78;1.30;;;;;;;18.10;40.88;101728.06;10635085;27;20058;-69
2023/05/14 17:18:40;;;;;;;3.45;1.70;;;;;;;18.02;40.68;101732.34;10652696;27;20035;-70
2023/05/14 17:23:42;;;;;;;1.90;1.70;;;;;;;17.97;40.79;101742.72;10614828;27;20058;-69
2023/05/14 17:28:45;;;;;;;2.80;1.60;;;;;;;17.80;40.71;101739.69;10612595;27;20066;-69
2023/05/14 17:33:47;;;;;;;4.22;2.08;;;;;;;17.59;40.42;101733.63;10641157;27;20047;-73
2023/05/14 17:38:49;;;;;;;2.60;1.60;;;;;;;17.44;40.79;101731.91;10617072;28;20042;-72
2023/05/14 17:43:52;;;;;;;2.35;1.70;;;;;;;17.32;40.61;101735.13;10634227;27;20412;-73
2023/05/14 17:48:54;;;;;;;4.78;2.00;;;;;;;17.21;41.28;101741.13;10591737;28;20044;-70
2023/05/14 17:53:56;;;;;;;4.07;1.85;;;;;;;17.18;42.05;101737.84;10626790;28;20140;-69
2023/05/14 17:58:59;;;;;;;4.13;2.28;;;;;;;17.15;41.36;101741.19;10648222;28;20058;-70
2023/05/14 18:04:01;;;;;;;3.08;1.80;;;;;;;17.11;41.28;101737.34;10644070;27;20037;-70
2023/05/14 18:09:04;;;;;;;2.63;2.10;;;;;;;17.13;41.59;101737.88;10629706;28;20043;-70
2023/05/14 18:14:06;;;;;;;3.22;1.60;;;;;;;17.00;41.09;101737.78;10630857;27;20532;-71
2023/05/14 18:19:08;;;;;;;2.92;1.58;;;;;;;16.91;42.20;101739.59;10649235;27;20114;-72
2023/05/14 18:24:11;;;;;;;3.15;1.35;;;;;;;16.87;41.82;101742.13;10645729;27;20034;-72
2023/05/14 18:29:13;;;;;;;2.88;1.45;;;;;;;16.71;41.76;101738.72;10597114;28;20066;-72
2023/05/14 18:34:16;;;;;;;4.38;1.55;;;;;;;16.74;42.05;101742.84;10620393;27;20039;-73
2023/05/14 18:39:18;;;;;;;1.55;1.38;;;;;;;16.74;42.55;101748.38;10655186;27;20417;-72
2023/05/14 18:44:20;;;;;;;4.45;1.80;;;;;;;16.68;42.25;101752.34;10647291;27;20038;-71
2023/05/14 18:49:22;;;;;;;2.92;1.48;;;;;;;16.48;42.80;101754.16;10664912;27;20047;-72
2023/05/14 18:54:24;;;;;;;1.88;1.70;;;;;;;16.45;42.40;101752.00;10625286;27;20058;-70
2023/05/14 18:59:26;;;;;;;3.53;1.77;;;;;;;16.39;42.55;101747.63;10653516;27;20034;-72
2023/05/14 19:04:29;;;;;;;3.55;1.73;;;;;;;16.19;43.39;101745.06;10650389;27;20039;-73
2023/05/14 19:09:32;;;;;;;4.80;1.63;;;;;;;16.05;43.63;101733.03;10631325;27;20523;-74
2023/05/14 19:14:34;;;;;;;3.08;1.55;;;;;;;16.06;43.99;101740.22;10651485;27;20050;-73
2023/05/14 19:19:38;;;;;;;3.13;1.60;;;;;;;16.10;43.38;101735.75;10640909;27;20054;-71
2023/05/14 19:24:40;;;;;;;7.95;2.00;;;;;;;15.99;44.00;101735.03;10635745;27;20035;-71
2023/05/14 19:29:43;;;;;;;4.53;2.35;;;;;;;15.84;43.75;101735.16;10656503;27;20043;-71
2023/05/14 19:34:45;;;;;;;2.33;1.95;;;;;;;15.77;44.83;101732.69;10639536;27;20058;-71
2023/05/14 19:39:47;;;;;;;3.60;1.85;;;;;;;15.84;44.92;101735.16;10632020;27;20420;-71
2023/05/14 19:44:50;;;;;;;5.13;1.45;;;;;;;15.71;44.80;101742.16;10612832;27;20536;-71
2023/05/14 19:49:58;;;;;;;5.40;1.98;;;;;;;15.50;45.51;101743.41;10654021;27;20042;-70
2023/05/14 19:55:00;;;;;;;;;;;;;;;15.37;45.50;101737.41;10635018;27;20429;-68
2023/05/14 20:00:03;;;;;;;4.55;1.40;;;;;;;15.30;46.02;101736.91;10654035;27;19919;-69
2023/05/14 20:05:17;;;;;;;4.47;2.10;;;;;;;15.28;46.10;101739.13;10625467;27;20039;-68
2023/05/14 20:10:20;;;;;;;3.53;1.50;;;;;;;15.30;46.29;101733.31;10634742;27;20042;-68
2023/05/14 20:15:22;;;;;;;4.80;2.38;;;;;;;15.30;46.78;101734.13;10625208;27;20039;-69
2023/05/14 20:20:25;;;;;;;7.10;2.60;;;;;;;15.31;46.08;101729.44;10647773;27;20058;-68
2023/05/14 20:25:27;;;;;;;4.13;2.42;;;;;;;15.31;46.44;101734.97;10645290;27;20046;-68
2023/05/14 20:30:30;;;;;;;4.13;2.10;;;;;;;15.16;46.73;101727.59;10636979;27;20043;-68
2023/05/14 20:35:32;;;;;;;4.55;2.03;;;;;;;15.15;47.47;101725.09;10604677;27;20043;-72
2023/05/14 20:40:35;;;;;;;2.92;1.90;;;;;;;15.18;47.24;101725.34;10656352;27;20030;-72
2023/05/14 20:45:38;;;;;;;2.38;2.08;;;;;;;15.04;47.00;101732.63;10625623;27;20038;-71
2023/05/14 20:50:41;;;;;;;4.32;2.13;;;;;;;14.93;47.19;101729.09;10619062;27;20039;-70
2023/05/14 20:55:43;;;;;;;4.28;2.10;;;;;;;14.94;47.64;101727.97;10634322;27;20473;-71
2023/05/14 21:00:46;;;;;;;6.53;2.50;;;;;;;14.99;47.66;101729.88;10654049;27;20039;-71
2023/05/14 21:05:48;;;;;;;5.05;2.17;;;;;;;14.95;47.70;101729.63;10643957;27;20043;-70
2023/05/14 21:10:50;;;;;;;4.28;2.45;;;;;;;14.71;47.79;101737.72;10602611;27;20059;-70
2023/05/14 21:15:53;;;;;;;5.28;2.33;;;;;;;14.65;48.30;101741.63;10631613;27;20035;-71
2023/05/14 21:20:55;;;;;;;3.85;2.40;;;;;;;14.58;48.58;101741.13;10629597;27;20958;-70
2023/05/14 21:25:57;;;;;;;4.85;2.80;;;;;;;14.45;49.09;101741.69;10621501;27;20039;-70
2023/05/14 21:30:59;;;;;;;6.57;2.65;;;;;;;14.35;48.95;101731.47;10617779;27;20408;-70
2023/05/14 21:36:01;;;;;;;8.65;2.80;;;;;;;14.38;48.93;101744.69;10639736;27;20042;-71
2023/05/14 21:41:03;;;;;;;4.03;2.63;;;;;;;14.35;49.48;101744.44;10614348;27;20054;-70
2023/05/14 21:46:06;;;;;;;4.43;2.63;;;;;;;14.41;49.55;101741.41;10628052;27;20027;-71
2023/05/14 21:51:09;;;;;;;5.15;2.42;;;;;;;14.39;49.44;101746.34;10641450;28;20047;-70
2023/05/14 21:56:12;;;;;;;3.55;2.42;;;;;;;14.24;50.02;101734.53;10628539;27;20043;-71
2023/05/14 22:01:14;;;;;;;4.75;2.50;;;;;;;14.02;49.55;101741.19;10645351;27;20053;-70
2023/05/14 22:06:16;;;;;;;6.53;2.60;;;;;;;13.88;50.37;101742.84;10643462;27;20039;-71
2023/05/14 22:11:18;;;;;;;4.65;2.90;;;;;;;13.85;50.95;101743.38;10634020;28;20050;-73
2023/05/14 22:16:21;;;;;;;4.30;2.45;;;;;;;13.85;50.98;101740.63;10627110;27;20043;-72
2023/05/14 22:21:23;;;;;;;8.00;2.40;;;;;;;13.75;51.27;101735.97;10638453;27;20051;-72
2023/05/14 22:26:25;;;;;;;3.30;1.90;;;;;;;13.64;51.28;101734.28;10621164;27;20047;-72
2023/05/14 22:31:28;;;;;;;3.97;2.30;;;;;;;13.54;51.38;101735.13;10626234;27;20047;-70
2023/05/14 22:36:30;;;;;;;6.55;2.72;;;;;;;13.49;51.96;101740.59;10602078;28;20509;-73
2023/05/14 22:41:33;;;;;;;7.30;2.30;;;;;;;13.45;51.80;101734.00;10647074;27;20549;-72
2023/05/14 22:46:35;;;;;;;5.85;2.20;;;;;;;13.46;51.96;101743.09;10596338;28;20051;-72
2023/05/14 22:51:37;;;;;;;4.95;2.95;;;;;;;13.44;52.86;101748.88;10592848;28;20517;-72
2023/05/14 22:56:39;;;;;;;4.75;2.97;;;;;;;13.39;52.86;101746.13;10586817;28;20047;-73
2023/05/14 23:01:42;;;;;;;8.73;3.05;;;;;;;13.49;52.57;101737.84;10589851;27;20051;-73
2023/05/14 23:06:44;;;;;;;6.05;2.60;;;;;;;13.62;52.43;101746.69;10595921;28;20529;-72
2023/05/14 23:11:46;;;;;;;3.97;2.35;;;;;;;13.67;51.87;101744.75;10606081;27;20031;-72